createdAt,value
2023-01-19T00:01:31.811Z,12.27
2023-01-19T00:03:59.418Z,10.55
2023-01-19T00:06:29.096Z,10.88
2023-01-19T00:08:56.631Z,13.40
2023-01-19T00:11:24.179Z,11.32
2023-01-19T00:13:51.891Z,13.23
2023-01-19T00:16:22.919Z,14.00
2023-01-19T00:18:51.896Z,11.95
2023-01-19T00:21:20.127Z,12.30
2023-01-19T00:23:48.083Z,10.20
2023-01-19T00:26:16.416Z,12.75
2023-01-19T00:28:44.619Z,12.77
2023-01-19T00:31:12.242Z,13.75
2023-01-19T00:33:39.686Z,18.45
2023-01-19T00:36:07.230Z,16.90
2023-01-19T00:38:34.617Z,14.98
2023-01-19T00:41:01.693Z,13.55
2023-01-19T00:43:29.019Z,17.95
2023-01-19T00:45:56.108Z,19.70
2023-01-19T00:48:23.778Z,18.40
2023-01-19T00:50:50.877Z,17.52
2023-01-19T00:53:18.342Z,15.85
2023-01-19T00:55:45.308Z,15.90
2023-01-19T00:58:12.709Z,15.23
2023-01-19T01:00:39.863Z,16.00
2023-01-19T01:03:07.495Z,15.27
2023-01-19T01:05:34.771Z,14.10
2023-01-19T01:08:02.148Z,17.20
2023-01-19T01:10:29.699Z,18.55
2023-01-19T01:12:58.783Z,19.65
2023-01-19T01:15:27.667Z,22.40
2023-01-19T01:17:55.953Z,23.33
2023-01-19T01:20:27.143Z,21.67
2023-01-19T01:22:55.363Z,19.15
2023-01-19T01:25:25.053Z,20.52
2023-01-19T01:27:52.480Z,18.42
2023-01-19T01:30:20.812Z,17.95
2023-01-19T01:32:49.050Z,18.13
2023-01-19T01:35:16.971Z,18.55
2023-01-19T01:37:44.539Z,17.55
2023-01-19T01:40:13.631Z,17.85
2023-01-19T01:42:42.408Z,17.35
2023-01-19T01:45:32.718Z,19.60
2023-01-19T01:48:18.878Z,20.13
2023-01-19T01:51:16.857Z,20.17
2023-01-19T01:53:47.344Z,19.90
2023-01-19T01:56:19.844Z,21.67
2023-01-19T01:58:47.979Z,20.83
2023-01-19T02:01:34.310Z,19.25
2023-01-19T02:04:01.480Z,20.73
2023-01-19T02:06:29.484Z,19.63
2023-01-19T02:09:24.787Z,19.75
2023-01-19T02:12:11.304Z,19.08
2023-01-19T02:14:38.359Z,20.25
2023-01-19T02:17:06.967Z,19.20
2023-01-19T02:19:41.967Z,18.80
2023-01-19T02:22:35.996Z,19.95
2023-01-19T02:25:07.198Z,20.23
2023-01-19T02:27:36.973Z,19.27
2023-01-19T02:30:04.726Z,19.98
2023-01-19T02:32:32.007Z,18.52
2023-01-19T02:34:59.150Z,19.58
2023-01-19T02:37:30.176Z,19.40
2023-01-19T02:40:01.825Z,19.27
2023-01-19T02:42:39.048Z,24.00
2023-01-19T02:45:09.519Z,24.58
2023-01-19T02:47:43.085Z,28.40
2023-01-19T02:50:46.470Z,21.10
2023-01-19T02:53:16.416Z,17.75
2023-01-19T02:55:51.567Z,20.73
2023-01-19T02:58:30.091Z,18.50
2023-01-19T03:01:19.784Z,20.35
2023-01-19T03:04:01.891Z,18.30
2023-01-19T03:07:01.260Z,17.85
2023-01-19T03:10:07.695Z,17.60
2023-01-19T03:12:48.545Z,18.33
2023-01-19T03:15:23.388Z,17.88
2023-01-19T03:17:53.148Z,16.30
2023-01-19T03:20:25.385Z,17.13
2023-01-19T03:23:00.558Z,16.73
2023-01-19T03:25:33.257Z,16.92
2023-01-19T03:28:01.897Z,16.08
2023-01-19T03:30:34.884Z,16.17
2023-01-19T03:33:27.960Z,16.08
2023-01-19T03:36:03.673Z,15.60
2023-01-19T03:38:35.574Z,16.80
2023-01-19T03:41:09.229Z,16.88
2023-01-19T03:43:38.272Z,15.57
2023-01-19T03:46:07.543Z,16.15
2023-01-19T03:48:34.730Z,14.03
2023-01-19T03:51:08.328Z,16.58
2023-01-19T03:53:35.379Z,16.05
2023-01-19T03:56:03.645Z,16.20
2023-01-19T03:58:30.696Z,17.65
2023-01-19T04:00:58.306Z,18.45
2023-01-19T04:03:25.369Z,17.65
2023-01-19T04:05:52.751Z,16.90
2023-01-19T04:08:19.763Z,17.17
2023-01-19T04:10:47.129Z,18.63
2023-01-19T04:13:14.196Z,18.13
2023-01-19T04:15:41.646Z,17.85
2023-01-19T04:18:08.640Z,16.67
2023-01-19T04:20:36.044Z,16.00
2023-01-19T04:23:03.465Z,15.48
2023-01-19T04:25:31.258Z,15.45
2023-01-19T04:27:58.467Z,16.45
2023-01-19T04:30:27.467Z,16.20
2023-01-19T04:32:55.547Z,22.15
2023-01-19T04:35:23.682Z,19.70
2023-01-19T04:37:50.830Z,15.98
2023-01-19T04:40:18.232Z,17.08
2023-01-19T04:42:46.109Z,18.88
2023-01-19T04:45:14.374Z,22.63
2023-01-19T04:47:42.680Z,18.13
2023-01-19T04:50:11.426Z,19.83
2023-01-19T04:52:38.667Z,53.63
2023-01-19T04:55:06.848Z,143.95
2023-01-19T04:57:34.218Z,136.93
2023-01-19T05:00:01.902Z,239.82
2023-01-19T05:02:29.221Z,246.65
2023-01-19T05:04:56.603Z,191.18
2023-01-19T05:07:23.644Z,153.40
2023-01-19T05:09:51.274Z,78.82
2023-01-19T05:12:18.480Z,53.70
2023-01-19T05:14:46.167Z,43.58
2023-01-19T05:17:13.652Z,60.60
2023-01-19T05:19:41.260Z,65.65
2023-01-19T05:22:08.658Z,54.00
2023-01-19T05:24:36.119Z,19.58
2023-01-19T05:27:03.829Z,18.40
2023-01-19T05:29:31.189Z,16.95
2023-01-19T05:31:58.540Z,16.27
2023-01-19T05:34:25.812Z,16.98
2023-01-19T05:36:53.308Z,20.08
2023-01-19T05:39:20.763Z,21.42
2023-01-19T05:41:48.077Z,18.45
2023-01-19T05:44:15.714Z,18.27
2023-01-19T05:46:42.977Z,20.08
2023-01-19T05:49:12.877Z,19.42
2023-01-19T05:51:45.206Z,19.67
2023-01-19T05:54:15.381Z,22.50
2023-01-19T05:59:10.050Z,18.58
2023-01-19T06:01:39.868Z,19.08
2023-01-19T06:04:07.622Z,21.75
2023-01-19T06:06:34.592Z,49.80
2023-01-19T06:09:01.974Z,41.10
2023-01-19T06:11:29.079Z,31.65
2023-01-19T06:13:56.441Z,22.85
2023-01-19T06:16:23.530Z,29.65
2023-01-19T06:18:50.906Z,33.25
2023-01-19T06:21:18.001Z,25.50
2023-01-19T06:23:45.372Z,28.10
2023-01-19T06:26:13.549Z,19.67
2023-01-19T06:28:40.933Z,16.80
2023-01-19T06:31:08.006Z,26.67
2023-01-19T06:33:35.489Z,30.48
2023-01-19T06:36:02.581Z,31.88
2023-01-19T06:38:29.971Z,47.28
2023-01-19T06:41:03.294Z,38.55
2023-01-19T06:43:31.517Z,25.15
2023-01-19T06:46:00.570Z,42.33
2023-01-19T06:48:28.030Z,29.40
2023-01-19T06:50:58.465Z,58.50
2023-01-19T06:53:28.001Z,62.13
2023-01-19T06:56:02.464Z,31.50
2023-01-19T06:58:31.780Z,40.75
2023-01-19T07:01:03.769Z,31.70
2023-01-19T07:03:32.278Z,23.17
2023-01-19T07:06:02.385Z,34.95
2023-01-19T07:08:30.269Z,35.00
2023-01-19T07:11:25.599Z,17.10
2023-01-19T07:13:55.593Z,16.40
2023-01-19T07:16:23.716Z,14.33
2023-01-19T07:18:51.084Z,13.77
2023-01-19T07:21:19.275Z,13.82
2023-01-19T07:23:51.179Z,17.13
2023-01-19T07:26:21.724Z,51.53
2023-01-19T07:28:49.485Z,32.50
2023-01-19T07:31:17.906Z,15.75
2023-01-19T07:33:45.860Z,15.85
2023-01-19T07:36:13.637Z,15.65
2023-01-19T07:38:41.004Z,17.48
2023-01-19T07:41:10.172Z,21.42
2023-01-19T07:43:37.751Z,22.10
2023-01-19T07:46:06.408Z,25.27
2023-01-19T07:48:34.168Z,29.45
2023-01-19T07:51:11.723Z,50.22
2023-01-19T07:53:41.499Z,22.98
2023-01-19T07:56:10.176Z,21.10
2023-01-19T07:58:38.352Z,38.60
2023-01-19T08:01:10.391Z,47.10
2023-01-19T08:03:38.582Z,61.55
2023-01-19T08:06:06.733Z,24.40
2023-01-19T08:08:34.721Z,52.67
2023-01-19T08:11:01.792Z,29.25
2023-01-19T08:13:29.204Z,31.33
2023-01-19T08:15:56.318Z,31.40
2023-01-19T08:18:23.793Z,59.45
2023-01-19T08:20:51.084Z,56.45
2023-01-19T08:23:18.658Z,72.97
2023-01-19T08:25:46.071Z,41.13
2023-01-19T08:28:16.062Z,57.42
2023-01-19T08:30:44.951Z,24.42
2023-01-19T08:33:13.788Z,21.60
2023-01-19T08:35:42.605Z,19.65
2023-01-19T08:38:10.856Z,20.90
2023-01-19T08:40:40.284Z,23.52
2023-01-19T08:43:10.605Z,32.63
2023-01-19T08:45:46.565Z,50.90
2023-01-19T08:48:15.017Z,24.15
2023-01-19T08:50:42.031Z,22.58
2023-01-19T08:53:10.344Z,23.70
2023-01-19T08:55:37.647Z,17.33
2023-01-19T08:58:06.212Z,16.80
2023-01-19T09:00:34.446Z,17.05
2023-01-19T09:03:04.136Z,21.88
2023-01-19T09:05:35.677Z,18.38
2023-01-19T09:08:13.813Z,16.70
2023-01-19T09:10:46.546Z,70.07
2023-01-19T09:13:15.290Z,39.05
2023-01-19T09:15:43.557Z,46.50
2023-01-19T09:18:14.131Z,53.03
2023-01-19T09:20:42.899Z,63.40
2023-01-19T09:23:12.343Z,43.25
2023-01-19T09:25:40.499Z,21.13
2023-01-19T09:28:09.724Z,21.60
2023-01-19T09:30:38.633Z,26.10
2023-01-19T09:33:08.163Z,21.70
2023-01-19T09:35:35.318Z,20.70
2023-01-19T09:38:03.544Z,28.05
2023-01-19T09:40:31.849Z,23.98
2023-01-19T09:43:17.027Z,22.85
2023-01-19T09:45:56.985Z,17.50
2023-01-19T09:48:47.922Z,18.23
2023-01-19T09:51:36.309Z,20.25
2023-01-19T09:54:15.811Z,22.42
2023-01-19T09:56:44.648Z,23.70
2023-01-19T09:59:22.280Z,22.00
2023-01-19T10:02:00.881Z,16.50
2023-01-19T10:04:42.216Z,20.98
2023-01-19T10:07:12.655Z,19.83
2023-01-19T10:09:49.017Z,17.83
2023-01-19T10:12:31.417Z,21.00
2023-01-19T10:15:20.860Z,20.75
2023-01-19T10:17:58.087Z,22.73
2023-01-19T10:20:46.047Z,26.02
2023-01-19T10:23:39.470Z,28.00
2023-01-19T10:26:20.897Z,28.30
2023-01-19T10:28:51.340Z,28.95
2023-01-19T10:31:22.895Z,30.73
2023-01-19T10:33:50.909Z,29.20
2023-01-19T10:36:39.776Z,26.98
2023-01-19T10:39:07.967Z,23.77
2023-01-19T10:41:50.390Z,23.40
2023-01-19T10:44:25.290Z,24.77
2023-01-19T10:46:55.512Z,23.63
2023-01-19T10:51:58.003Z,24.27
2023-01-19T10:56:59.462Z,24.17
2023-01-19T10:59:36.017Z,24.88
2023-01-19T11:02:12.674Z,24.25
2023-01-19T11:04:42.183Z,25.10
2023-01-19T11:07:23.998Z,25.55
2023-01-19T11:10:11.251Z,25.23
2023-01-19T11:13:01.521Z,32.13
2023-01-19T11:15:43.171Z,26.50
2023-01-19T11:18:26.302Z,40.38
2023-01-19T11:20:56.597Z,36.08
2023-01-19T11:23:43.121Z,23.63
2023-01-19T11:26:16.925Z,21.98
2023-01-19T11:28:51.372Z,21.73
2023-01-19T11:31:31.278Z,20.42
2023-01-19T11:34:22.663Z,20.48
2023-01-19T11:37:05.393Z,20.90
2023-01-19T11:39:46.567Z,19.48
2023-01-19T11:42:15.468Z,19.90
2023-01-19T11:45:24.452Z,18.50
2023-01-19T11:47:54.688Z,20.67
2023-01-19T11:50:42.261Z,24.35
2023-01-19T11:53:29.276Z,22.13
2023-01-19T11:56:03.127Z,15.70
2023-01-19T11:58:33.379Z,15.32
2023-01-19T12:01:16.887Z,13.13
2023-01-19T12:03:46.542Z,12.68
2023-01-19T12:06:45.464Z,9.93
2023-01-19T12:09:23.102Z,10.18
2023-01-19T12:12:01.633Z,8.40
2023-01-19T12:15:01.520Z,9.48
2023-01-19T12:17:46.371Z,9.55
2023-01-19T12:20:32.862Z,9.02
2023-01-19T12:23:10.407Z,11.63
2023-01-19T12:25:53.939Z,12.82
2023-01-19T12:28:30.827Z,11.90
2023-01-19T12:31:01.198Z,9.70
2023-01-19T12:33:29.751Z,10.75
2023-01-19T12:36:04.049Z,10.63
2023-01-19T12:38:40.912Z,11.85
2023-01-19T12:41:25.697Z,12.10
2023-01-19T12:44:11.400Z,15.07
2023-01-19T12:46:43.482Z,14.50
2023-01-19T12:49:17.434Z,13.25
2023-01-19T12:51:45.932Z,11.30
2023-01-19T12:54:49.536Z,13.32
2023-01-19T12:57:25.146Z,12.88
2023-01-19T12:59:59.393Z,26.63
2023-01-19T13:02:26.967Z,21.02
2023-01-19T13:05:06.729Z,14.25
2023-01-19T13:08:01.803Z,15.70
2023-01-19T13:11:00.379Z,18.10
2023-01-19T13:13:36.827Z,32.25
2023-01-19T13:16:19.634Z,21.77
2023-01-19T13:19:13.428Z,21.23
2023-01-19T13:21:46.141Z,22.75
2023-01-19T13:24:20.868Z,28.90
2023-01-19T13:26:58.988Z,24.35
2023-01-19T13:29:33.845Z,37.72
2023-01-19T13:32:13.455Z,39.28
2023-01-19T13:34:44.123Z,31.38
2023-01-19T13:37:22.322Z,36.45
2023-01-19T13:39:53.403Z,24.60
2023-01-19T13:42:32.574Z,28.35
2023-01-19T13:45:17.117Z,27.83
2023-01-19T13:47:48.448Z,19.15
2023-01-19T13:50:19.854Z,17.73
2023-01-19T13:52:48.972Z,17.02
2023-01-19T13:55:16.355Z,16.90
2023-01-19T13:57:46.039Z,18.42
2023-01-19T14:00:14.460Z,18.83
2023-01-19T14:02:54.999Z,19.65
2023-01-19T14:05:25.732Z,20.58
2023-01-19T14:08:26.093Z,19.48
2023-01-19T14:11:05.255Z,19.75
2023-01-19T14:13:35.224Z,20.27
2023-01-19T14:16:12.551Z,20.50
2023-01-19T14:18:40.212Z,21.45
2023-01-19T14:21:13.237Z,21.90
2023-01-19T14:23:43.875Z,23.45
2023-01-19T14:26:39.266Z,24.95
2023-01-19T14:29:23.226Z,26.17
2023-01-19T14:31:53.309Z,26.40
2023-01-19T14:35:04.561Z,25.95
2023-01-19T14:37:35.097Z,39.70
2023-01-19T14:40:10.804Z,42.67
2023-01-19T14:43:00.039Z,32.08
2023-01-19T14:45:37.733Z,30.77
2023-01-19T14:48:19.704Z,32.30
2023-01-19T14:51:02.376Z,30.75
2023-01-19T14:53:36.823Z,32.25
2023-01-19T14:56:06.310Z,38.10
2023-01-19T14:58:35.349Z,60.70
2023-01-19T15:01:04.686Z,44.67
2023-01-19T15:03:44.354Z,38.40
2023-01-19T15:06:21.274Z,34.38
2023-01-19T15:08:50.228Z,31.73
2023-01-19T15:11:26.458Z,34.95
2023-01-19T15:13:55.421Z,51.00
2023-01-19T15:16:24.304Z,53.97
2023-01-19T15:18:51.682Z,47.20
2023-01-19T15:21:21.749Z,44.05
2023-01-19T15:26:22.186Z,32.53
2023-01-19T15:28:50.083Z,30.67
2023-01-19T15:31:26.043Z,26.27
2023-01-19T15:33:53.758Z,25.70
2023-01-19T15:36:22.403Z,26.98
2023-01-19T15:38:51.160Z,26.43
2023-01-19T15:41:29.986Z,26.45
2023-01-19T15:43:58.557Z,29.73
2023-01-19T15:46:26.798Z,28.42
2023-01-19T15:48:54.407Z,30.90
2023-01-19T15:51:27.432Z,33.63
2023-01-19T15:53:55.795Z,35.72
2023-01-19T15:56:31.331Z,37.30
2023-01-19T15:58:58.975Z,35.20
2023-01-19T16:01:32.764Z,34.67
2023-01-19T16:04:02.186Z,36.80
2023-01-19T16:06:31.221Z,39.72
2023-01-19T16:09:01.332Z,39.30
2023-01-19T16:11:34.225Z,38.85
2023-01-19T16:14:01.682Z,34.65
2023-01-19T16:16:29.692Z,34.65
2023-01-19T16:18:57.432Z,35.75
2023-01-19T16:21:25.385Z,37.45
2023-01-19T16:23:52.987Z,38.95
2023-01-19T16:26:35.089Z,40.28
2023-01-19T16:29:11.494Z,37.88
2023-01-19T16:31:41.772Z,31.85
2023-01-19T16:34:09.608Z,32.75
2023-01-19T16:36:40.515Z,31.02
2023-01-19T16:39:13.521Z,31.15
2023-01-19T16:41:42.395Z,30.10
2023-01-19T16:44:12.055Z,29.48
2023-01-19T16:46:41.954Z,34.75
2023-01-19T16:49:19.573Z,33.97
2023-01-19T16:51:48.113Z,33.20
2023-01-19T16:54:18.341Z,35.33
2023-01-19T16:56:46.597Z,34.33
2023-01-19T16:59:16.432Z,35.45
2023-01-19T17:01:45.815Z,35.67
2023-01-19T17:04:14.079Z,35.95
2023-01-19T17:06:41.992Z,33.53
2023-01-19T17:09:10.154Z,34.03
2023-01-19T17:11:37.923Z,33.17
2023-01-19T17:14:17.291Z,31.88
2023-01-19T17:19:19.176Z,32.00
2023-01-19T17:21:51.570Z,32.75
2023-01-19T17:24:19.175Z,36.63
2023-01-19T17:26:48.741Z,37.00
2023-01-19T17:29:16.821Z,41.83
2023-01-19T17:31:46.053Z,43.33
2023-01-19T17:34:13.742Z,44.97
2023-01-19T17:36:41.406Z,46.15
2023-01-19T17:39:11.562Z,46.25
2023-01-19T17:41:39.024Z,44.83
2023-01-19T17:44:07.188Z,46.28
2023-01-19T17:46:37.217Z,45.10
2023-01-19T17:49:07.009Z,46.13
2023-01-19T17:51:35.176Z,43.17
2023-01-19T17:54:02.366Z,45.40
2023-01-19T17:56:33.203Z,50.28
2023-01-19T17:59:00.627Z,54.42
2023-01-19T18:01:30.883Z,55.22
2023-01-19T18:03:58.867Z,54.20
2023-01-19T18:06:26.808Z,63.17
2023-01-19T18:08:54.202Z,54.53
2023-01-19T18:11:22.395Z,67.93
2023-01-19T18:13:50.737Z,57.00
2023-01-19T18:16:24.588Z,51.67
2023-01-19T18:18:56.132Z,44.58
2023-01-19T18:21:27.542Z,43.53
2023-01-19T18:24:01.206Z,42.00
2023-01-19T18:26:29.493Z,42.03
2023-01-19T18:28:57.355Z,43.78
2023-01-19T18:31:26.204Z,46.33
2023-01-19T18:33:53.707Z,45.35
2023-01-19T18:36:22.070Z,55.92
2023-01-19T18:38:50.123Z,57.75
2023-01-19T18:41:20.093Z,70.82
2023-01-19T18:43:48.357Z,62.30
2023-01-19T18:46:16.709Z,68.65
2023-01-19T18:48:44.484Z,68.05
2023-01-19T18:51:15.164Z,64.40
2023-01-19T18:53:43.934Z,66.93
2023-01-19T18:56:13.613Z,59.58
2023-01-19T19:01:26.453Z,58.67
2023-01-19T19:04:18.908Z,57.97
2023-01-19T19:06:46.403Z,59.17
2023-01-19T19:09:19.458Z,63.58
2023-01-19T19:11:54.967Z,63.83
2023-01-19T19:14:25.877Z,67.05
2023-01-19T19:16:53.900Z,71.35
2023-01-19T19:19:21.202Z,87.20
2023-01-19T19:21:49.140Z,83.82
2023-01-19T19:24:16.674Z,75.10
2023-01-19T19:26:44.736Z,70.70
2023-01-19T19:29:12.398Z,74.60
2023-01-19T19:31:40.209Z,74.00
2023-01-19T19:34:09.434Z,64.32
2023-01-19T19:36:37.275Z,61.92
2023-01-19T19:39:05.389Z,63.80
2023-01-19T19:41:33.526Z,65.63
2023-01-19T19:44:01.009Z,69.25
2023-01-19T19:46:28.881Z,73.15
2023-01-19T19:48:56.456Z,75.75
2023-01-19T19:51:28.416Z,77.28
2023-01-19T19:53:59.103Z,68.80
2023-01-19T19:56:29.893Z,71.75
2023-01-19T19:59:00.119Z,67.70
2023-01-19T20:01:32.882Z,112.97
2023-01-19T20:04:09.732Z,83.63
2023-01-19T20:06:40.962Z,77.35
2023-01-19T20:09:10.911Z,81.53
2023-01-19T20:11:43.626Z,61.28
2023-01-19T20:14:16.515Z,57.55
2023-01-19T20:16:45.488Z,58.10
2023-01-19T20:19:14.772Z,58.40
2023-01-19T20:21:43.506Z,59.20
2023-01-19T20:24:18.018Z,54.80
2023-01-19T20:26:49.391Z,51.03
2023-01-19T20:29:17.872Z,56.80
2023-01-19T20:31:53.614Z,49.65
2023-01-19T20:34:25.690Z,53.60
2023-01-19T20:36:56.009Z,49.97
2023-01-19T20:39:25.034Z,54.27
2023-01-19T20:42:13.944Z,55.22
2023-01-19T20:44:43.143Z,53.33
2023-01-19T20:47:11.444Z,43.47
2023-01-19T20:49:38.995Z,45.42
2023-01-19T20:52:06.945Z,40.25
2023-01-19T20:54:34.694Z,37.72
2023-01-19T20:57:02.689Z,45.10
2023-01-19T20:59:30.195Z,39.58
2023-01-19T21:01:57.912Z,33.33
2023-01-19T21:04:25.178Z,31.33
2023-01-19T21:06:52.725Z,32.05
2023-01-19T21:09:20.137Z,29.38
2023-01-19T21:11:47.665Z,28.83
2023-01-19T21:14:14.891Z,29.92
2023-01-19T21:16:42.720Z,29.08
2023-01-19T21:19:10.541Z,26.70
2023-01-19T21:21:38.382Z,28.52
2023-01-19T21:24:05.784Z,28.23
2023-01-19T21:26:33.768Z,25.52
2023-01-19T21:29:02.662Z,24.25
2023-01-19T21:31:31.385Z,24.83
2023-01-19T21:33:59.089Z,27.10
2023-01-19T21:36:27.127Z,26.45
2023-01-19T21:39:00.384Z,25.08
2023-01-19T21:41:30.141Z,27.17
2023-01-19T21:43:58.731Z,30.50
2023-01-19T21:46:29.778Z,27.05
2023-01-19T21:48:58.618Z,23.73
2023-01-19T21:51:26.949Z,21.42
2023-01-19T21:53:59.740Z,25.30
2023-01-19T21:56:28.826Z,23.23
2023-01-19T21:58:57.843Z,25.27
2023-01-19T22:03:57.420Z,25.20
2023-01-19T22:06:27.574Z,24.67
2023-01-19T22:08:55.908Z,34.45
2023-01-19T22:11:24.857Z,29.83
2023-01-19T22:13:52.396Z,25.98
2023-01-19T22:16:22.286Z,22.92
2023-01-19T22:18:59.695Z,23.73
2023-01-19T22:21:32.109Z,22.85
2023-01-19T22:24:00.949Z,23.63
2023-01-19T22:26:29.958Z,22.40
2023-01-19T22:29:00.167Z,23.45
2023-01-19T22:31:29.153Z,25.90
2023-01-19T22:33:57.408Z,22.73
2023-01-19T22:36:30.535Z,20.38
2023-01-19T22:39:00.034Z,19.00
2023-01-19T22:41:38.247Z,18.40
2023-01-19T22:44:08.687Z,15.60
2023-01-19T22:46:37.935Z,15.32
2023-01-19T22:49:07.633Z,15.48
2023-01-19T22:54:03.405Z,13.95
2023-01-19T22:56:32.667Z,13.63
2023-01-19T22:59:00.287Z,14.27
2023-01-19T23:01:31.422Z,13.35
2023-01-19T23:03:59.166Z,12.80
2023-01-19T23:06:29.179Z,13.55
2023-01-19T23:08:58.406Z,12.82
2023-01-19T23:11:35.856Z,13.85
2023-01-19T23:14:04.437Z,15.73
2023-01-19T23:16:31.870Z,14.98
2023-01-19T23:18:59.019Z,13.73
2023-01-19T23:21:29.059Z,14.38
2023-01-19T23:26:25.582Z,12.75
2023-01-19T23:28:55.840Z,13.38
2023-01-19T23:31:34.553Z,12.57
2023-01-19T23:34:05.179Z,13.52
2023-01-19T23:36:34.635Z,13.82
2023-01-19T23:39:22.513Z,14.82
2023-01-19T23:41:50.446Z,14.50
2023-01-19T23:44:18.271Z,14.05
2023-01-19T23:46:46.446Z,15.48
2023-01-19T23:49:13.824Z,15.35
2023-01-19T23:51:41.875Z,15.15
2023-01-19T23:54:09.558Z,15.05
2023-01-19T23:56:37.591Z,14.25
2023-01-19T23:59:07.377Z,14.95
